Terminal Aerodrome Forecast
Issued by NWS Buffalo, NY

Home | Current Version | Previous Version | Text Only | Print | Product List | Glossary On
Versions: 1 2 3 4 5 6 7 8 9 10 11 12 13 14 15 16 17 18 19 20 21 22 23 24 25 26 27 28 29 30 31 32 33
000
FTUS41 KBUF 012300
TAFART
TAF
KART 012329Z 0200/0224 20006KT 1SM -SN OVC020
     FM020300 24005KT 2SM -SN OVC025
     FM020500 25006KT P6SM -SHSN OVC025
     FM021500 26017G26KT P6SM BKN035=

USA.gov is the U.S. government's official web portal to all federal, state and local government web resources and services.